Time;durP1;ratioP1;P1;durP2;ratioP2;P2;SDS_P1;SDS_P2;PMS_P1;PMS_P2;Temp;Humidity;BMP_temperature;BMP_pressure;BME280_temperature;BME280_humidity;BME280_pressure;Samples;Min_cycle;Max_cycle;Signal;HPM_P1;HPM_P2
2023/02/22 00:00:41;;;;;;;96.27;24.53;;;5.90;99.90;;;;;;5078408;28;20831;-66
2023/02/22 00:03:16;;;;;;;35.67;19.60;;;5.90;99.90;;;;;;5078706;28;20468;-66
2023/02/22 00:05:46;;;;;;;129.70;24.90;;;5.90;99.90;;;;;;5077767;28;20513;-65
2023/02/22 00:08:15;;;;;;;90.73;23.43;;;5.90;99.90;;;;;;5078182;28;20466;-66
2023/02/22 00:10:42;;;;;;;39.10;21.93;;;5.90;99.90;;;;;;5078113;28;20561;-66
2023/02/22 00:13:13;;;;;;;75.07;24.30;;;5.90;99.90;;;;;;5077983;28;20560;-66
2023/02/22 00:15:40;;;;;;;95.00;23.80;;;5.90;99.90;;;;;;5078026;28;20488;-66
2023/02/22 00:18:12;;;;;;;62.73;22.90;;;5.90;99.90;;;;;;5077895;28;20887;-66
2023/02/22 00:20:40;;;;;;;150.43;26.70;;;5.80;99.90;;;;;;5078093;28;20476;-66
2023/02/22 00:23:08;;;;;;;51.77;23.50;;;5.80;99.90;;;;;;5078196;28;20461;-66
2023/02/22 00:25:36;;;;;;;63.60;23.33;;;5.70;99.90;;;;;;5077975;28;20484;-66
2023/02/22 00:28:03;;;;;;;93.13;20.87;;;5.70;99.90;;;;;;5076936;28;20440;-66
2023/02/22 00:30:32;;;;;;;32.93;16.40;;;5.60;99.90;;;;;;5076985;28;20486;-66
2023/02/22 00:33:00;;;;;;;31.33;14.90;;;5.50;99.90;;;;;;5077621;28;20464;-66
2023/02/22 00:35:30;;;;;;;29.20;15.37;;;5.50;99.90;;;;;;5077256;28;20468;-66
2023/02/22 00:37:58;;;;;;;30.37;16.43;;;5.40;99.90;;;;;;5077431;28;20908;-66
2023/02/22 00:40:29;;;;;;;41.57;16.50;;;5.40;99.90;;;;;;5075213;28;20496;-66
2023/02/22 00:42:57;;;;;;;23.73;14.17;;;5.40;99.90;;;;;;5075649;28;20470;-66
2023/02/22 00:45:26;;;;;;;24.43;14.20;;;5.30;99.90;;;;;;5077534;28;20484;-66
2023/02/22 00:47:54;;;;;;;55.13;16.33;;;5.30;99.90;;;;;;5076669;28;20468;-66
2023/02/22 00:50:23;;;;;;;33.20;14.07;;;5.20;99.90;;;;;;5076623;28;20462;-66
2023/02/22 00:52:52;;;;;;;39.47;15.07;;;5.10;99.90;;;;;;5077455;28;20465;-66
2023/02/22 00:55:23;;;;;;;39.87;15.27;;;5.10;99.90;;;;;;5077757;28;20461;-66
2023/02/22 00:57:50;;;;;;;41.30;14.20;;;5.00;99.90;;;;;;5077158;28;20985;-66
2023/02/22 01:00:20;;;;;;;43.23;14.97;;;5.00;99.90;;;;;;5077139;28;20953;-66
2023/02/22 01:02:49;;;;;;;42.53;16.13;;;5.00;99.90;;;;;;5077133;28;20594;-66
2023/02/22 01:05:18;;;;;;;89.70;19.10;;;5.00;99.90;;;;;;5076538;28;20917;-67
2023/02/22 01:07:48;;;;;;;40.87;14.97;;;5.00;99.90;;;;;;5076950;28;20462;-67
2023/02/22 01:10:19;;;;;;;39.97;16.90;;;4.90;99.90;;;;;;5074608;28;20803;-67
2023/02/22 01:12:48;;;;;;;31.10;15.87;;;4.90;99.90;;;;;;5075614;28;20527;-67
2023/02/22 01:15:17;;;;;;;119.63;22.40;;;5.00;99.90;;;;;;5075547;28;20481;-66
2023/02/22 01:17:49;;;;;;;90.00;18.80;;;4.90;99.90;;;;;;5076626;28;20490;-67
2023/02/22 01:20:17;;;;;;;35.67;15.30;;;4.90;99.90;;;;;;5076695;28;20798;-67
2023/02/22 01:22:47;;;;;;;59.80;16.50;;;4.90;99.90;;;;;;5076965;28;20446;-67
2023/02/22 01:25:20;;;;;;;79.57;17.90;;;4.80;99.90;;;;;;5077317;28;20462;-67
2023/02/22 01:27:49;;;;;;;124.27;19.87;;;4.90;99.90;;;;;;5075968;28;20496;-67
2023/02/22 01:30:18;;;;;;;32.43;14.40;;;4.80;99.90;;;;;;5076734;28;20461;-67
2023/02/22 01:32:45;;;;;;;84.20;17.80;;;4.80;99.90;;;;;;5076155;28;20472;-67
2023/02/22 01:35:17;;;;;;;42.40;13.73;;;4.80;99.90;;;;;;5076904;28;20488;-67
2023/02/22 01:37:45;;;;;;;42.70;13.50;;;4.70;99.90;;;;;;5076109;28;20829;-67
2023/02/22 01:40:19;;;;;;;27.50;12.03;;;4.60;99.90;;;;;;5076306;28;20501;-67
2023/02/22 01:42:51;;;;;;;98.07;16.20;;;4.60;99.90;;;;;;5076155;28;20493;-68
2023/02/22 01:45:50;;;;;;;22.93;11.93;;;4.50;99.90;;;;;;5077007;28;20483;-68
2023/02/22 01:48:23;;;;;;;45.53;14.90;;;4.60;99.90;;;;;;5073235;28;20487;-68
2023/02/22 01:50:55;;;;;;;61.40;16.00;;;4.50;99.90;;;;;;5076832;28;20513;-68
2023/02/22 01:53:26;;;;;;;127.40;20.13;;;4.50;99.90;;;;;;5076893;28;20965;-68
2023/02/22 01:55:56;;;;;;;75.13;17.70;;;4.40;99.90;;;;;;5075296;28;20485;-68
2023/02/22 01:58:26;;;;;;;67.53;14.10;;;4.30;99.90;;;;;;5075177;28;20552;-68
2023/02/22 02:00:53;;;;;;;60.57;14.63;;;4.30;99.90;;;;;;5077556;28;20493;-68
2023/02/22 02:03:26;;;;;;;22.33;11.97;;;4.20;99.90;;;;;;5078936;28;20446;-69
2023/02/22 02:05:56;;;;;;;77.60;16.23;;;4.10;99.90;;;;;;5078326;28;20497;-69
2023/02/22 02:08:31;;;;;;;23.00;13.50;;;4.10;99.90;;;;;;5078697;28;20501;-69
2023/02/22 02:11:02;;;;;;;68.83;16.20;;;4.10;99.90;;;;;;5078193;28;20934;-69
2023/02/22 02:13:29;;;;;;;21.20;12.23;;;4.00;99.90;;;;;;5080032;28;20467;-69
2023/02/22 02:15:57;;;;;;;29.33;13.23;;;3.90;99.90;;;;;;5077905;28;20479;-69
2023/02/22 02:18:26;;;;;;;34.60;11.90;;;3.90;99.90;;;;;;5080052;28;20468;-69
2023/02/22 02:21:32;;;;;;;52.43;14.87;;;3.90;99.90;;;;;;5079848;28;20935;-69
2023/02/22 02:24:43;;;;;;;30.83;13.77;;;3.80;99.90;;;;;;5059235;28;20519;-70
2023/02/22 02:27:19;;;;;;;37.40;13.10;;;3.80;99.90;;;;;;5023733;28;20517;-70
2023/02/22 02:30:37;;;;;;;25.20;11.80;;;3.70;99.90;;;;;;5080210;28;20465;-70
2023/02/22 02:33:11;;;;;;;19.37;11.47;;;3.60;99.90;;;;;;5053355;28;20469;-71
2023/02/22 02:35:53;;;;;;;16.83;12.13;;;3.50;99.90;;;;;;5079927;28;20461;-72
2023/02/22 02:38:32;;;;;;;40.17;15.00;;;3.40;99.90;;;;;;5079814;28;20839;-72
2023/02/22 02:41:07;;;;;;;37.40;14.60;;;3.40;99.90;;;;;;5079409;28;20499;-72
2023/02/22 02:43:41;;;;;;;22.90;11.43;;;3.30;99.90;;;;;;5078537;28;20469;-72
2023/02/22 02:46:15;;;;;;;17.93;11.60;;;3.30;99.90;;;;;;5079235;28;20727;-70
2023/02/22 02:48:49;;;;;;;35.27;12.80;;;3.30;99.90;;;;;;5079761;28;20465;-69
2023/02/22 02:51:18;;;;;;;50.17;14.93;;;3.20;99.90;;;;;;5079758;28;20460;-69
2023/02/22 02:53:50;;;;;;;17.73;11.90;;;3.20;99.90;;;;;;5078549;28;20773;-68
2023/02/22 02:56:17;;;;;;;15.97;11.50;;;3.10;99.90;;;;;;5079189;28;20474;-68
2023/02/22 02:58:47;;;;;;;12.80;10.40;;;3.10;99.90;;;;;;5079228;28;20762;-68
2023/02/22 03:01:21;;;;;;;14.80;10.87;;;3.10;99.90;;;;;;5079577;28;20490;-68
2023/02/22 03:04:22;;;;;;;17.60;12.57;;;3.00;99.90;;;;;;5078066;28;20440;-67
2023/02/22 03:07:16;;;;;;;17.20;11.80;;;3.00;99.90;;;;;;5079137;28;20492;-68
2023/02/22 03:09:59;;;;;;;25.60;14.53;;;3.10;99.90;;;;;;5079193;28;20432;-68
2023/02/22 03:12:38;;;;;;;25.20;14.53;;;3.10;99.90;;;;;;5078675;28;20527;-68
2023/02/22 03:15:20;;;;;;;20.40;13.70;;;3.10;99.90;;;;;;5078376;28;20456;-68
2023/02/22 03:17:54;;;;;;;24.00;14.10;;;3.10;99.90;;;;;;5078491;28;20547;-68
2023/02/22 03:20:31;;;;;;;21.13;13.90;;;3.20;99.90;;;;;;5079260;28;20497;-68
2023/02/22 03:23:04;;;;;;;22.03;14.00;;;3.20;99.90;;;;;;5076408;28;20493;-68
2023/02/22 03:25:37;;;;;;;21.37;14.37;;;3.30;99.90;;;;;;5077552;28;20748;-68
2023/02/22 03:28:10;;;;;;;21.67;13.87;;;3.30;99.90;;;;;;5078708;28;20841;-68
2023/02/22 03:30:41;;;;;;;22.00;13.03;;;3.30;99.90;;;;;;5078565;28;20465;-68
2023/02/22 03:33:14;;;;;;;25.70;13.70;;;3.30;99.90;;;;;;5079035;28;20472;-68
2023/02/22 03:35:47;;;;;;;24.57;14.03;;;3.30;99.90;;;;;;5077765;28;20518;-68
2023/02/22 03:38:19;;;;;;;27.40;15.27;;;3.30;99.90;;;;;;5078715;28;20465;-68
2023/02/22 03:40:50;;;;;;;25.60;15.10;;;3.30;99.90;;;;;;5079071;28;20942;-68
2023/02/22 03:43:22;;;;;;;24.97;14.57;;;3.40;99.90;;;;;;5079197;28;20552;-67
2023/02/22 03:45:52;;;;;;;25.70;14.63;;;3.40;99.90;;;;;;5077590;28;20466;-68
2023/02/22 03:48:24;;;;;;;27.67;15.30;;;3.40;99.90;;;;;;5077995;28;20444;-67
2023/02/22 03:50:53;;;;;;;20.70;14.67;;;3.40;99.90;;;;;;5078693;28;20466;-67
2023/02/22 03:53:22;;;;;;;21.27;14.17;;;3.30;99.90;;;;;;5078715;28;20862;-67
2023/02/22 03:55:51;;;;;;;24.10;14.87;;;3.30;99.90;;;;;;5077577;28;20488;-67
2023/02/22 03:58:21;;;;;;;21.37;14.30;;;3.30;99.90;;;;;;5078694;28;20535;-67
2023/02/22 04:00:51;;;;;;;22.07;13.63;;;3.20;99.90;;;;;;5078276;28;20493;-67
2023/02/22 04:03:19;;;;;;;27.20;14.23;;;3.20;99.90;;;;;;5078353;28;20472;-67
2023/02/22 04:05:46;;;;;;;23.53;13.90;;;3.20;99.90;;;;;;5077348;28;20932;-67
2023/02/22 04:08:16;;;;;;;22.80;13.73;;;3.10;99.90;;;;;;5077508;28;20518;-67
2023/02/22 04:10:43;;;;;;;22.23;14.07;;;3.10;99.90;;;;;;5078333;28;20457;-67
2023/02/22 04:13:13;;;;;;;22.20;13.50;;;3.10;99.90;;;;;;5078260;28;20461;-67
2023/02/22 04:15:40;;;;;;;23.20;13.33;;;3.10;99.90;;;;;;5077545;28;20995;-67
2023/02/22 04:18:07;;;;;;;24.00;14.30;;;3.10;99.90;;;;;;5078406;28;20495;-67
2023/02/22 04:20:35;;;;;;;22.70;14.70;;;3.00;99.90;;;;;;5077970;28;20489;-67
2023/02/22 04:23:02;;;;;;;24.43;13.80;;;3.00;99.90;;;;;;5077511;28;20465;-67
2023/02/22 04:25:30;;;;;;;25.83;15.40;;;3.00;99.90;;;;;;5077911;28;20887;-67
2023/02/22 04:27:57;;;;;;;23.30;13.93;;;3.10;99.90;;;;;;5076354;28;20489;-67
2023/02/22 04:30:27;;;;;;;23.93;14.37;;;3.10;99.90;;;;;;5075195;28;20468;-67
2023/02/22 04:32:54;;;;;;;25.50;16.03;;;3.10;99.90;;;;;;5075416;28;20455;-67
2023/02/22 04:35:21;;;;;;;24.30;15.90;;;3.10;99.90;;;;;;5077615;28;20465;-67
2023/02/22 04:37:48;;;;;;;23.00;15.07;;;3.10;99.90;;;;;;5077354;28;20491;-67
2023/02/22 04:40:17;;;;;;;26.13;17.30;;;3.10;99.90;;;;;;5076411;28;20492;-67
2023/02/22 04:42:46;;;;;;;27.00;16.30;;;3.20;99.90;;;;;;5077610;28;20465;-68
2023/02/22 04:45:13;;;;;;;26.50;15.10;;;3.20;99.90;;;;;;5077986;28;20766;-67
2023/02/22 04:47:41;;;;;;;30.57;16.23;;;3.30;99.90;;;;;;5077669;28;20432;-67
2023/02/22 04:50:10;;;;;;;25.37;15.90;;;3.30;99.90;;;;;;5076759;28;20810;-67
2023/02/22 04:52:37;;;;;;;26.23;15.93;;;3.30;99.90;;;;;;5077613;28;20472;-67
2023/02/22 04:55:05;;;;;;;24.43;16.37;;;3.30;99.90;;;;;;5077065;28;20837;-67
2023/02/22 04:57:32;;;;;;;26.60;15.33;;;3.20;99.90;;;;;;5077862;28;20461;-67
2023/02/22 05:00:01;;;;;;;27.77;17.17;;;3.30;99.90;;;;;;5076259;28;20507;-67
2023/02/22 05:02:28;;;;;;;24.00;16.47;;;3.30;99.90;;;;;;5077601;28;20470;-67
2023/02/22 05:04:55;;;;;;;30.40;18.00;;;3.40;99.90;;;;;;5076692;28;20461;-68
2023/02/22 05:07:23;;;;;;;23.57;17.40;;;3.40;99.90;;;;;;5077725;28;20462;-68
2023/02/22 05:09:50;;;;;;;27.00;17.43;;;3.40;99.90;;;;;;5076666;28;20500;-68
2023/02/22 05:12:17;;;;;;;27.00;17.33;;;3.50;99.90;;;;;;5076899;28;20492;-68
2023/02/22 05:14:45;;;;;;;27.40;16.00;;;3.50;99.90;;;;;;5077161;28;20453;-68
2023/02/22 05:17:14;;;;;;;26.60;17.53;;;3.60;99.90;;;;;;5077502;28;20475;-68
2023/02/22 05:19:41;;;;;;;28.70;17.40;;;3.60;99.90;;;;;;5076081;28;20460;-68
2023/02/22 05:22:08;;;;;;;27.67;16.50;;;3.60;99.90;;;;;;5076224;28;20472;-67
2023/02/22 05:24:36;;;;;;;26.90;16.73;;;3.60;99.90;;;;;;5076837;28;20465;-67
2023/02/22 05:27:03;;;;;;;25.70;16.77;;;3.50;99.90;;;;;;5077154;28;20469;-67
2023/02/22 05:29:30;;;;;;;28.50;16.13;;;3.50;99.90;;;;;;5077206;28;20483;-67
2023/02/22 05:31:58;;;;;;;27.40;16.57;;;3.50;99.90;;;;;;5075324;28;20428;-67
2023/02/22 05:34:26;;;;;;;27.73;17.33;;;3.60;99.90;;;;;;5076211;28;20457;-67
2023/02/22 05:36:54;;;;;;;30.20;17.40;;;3.60;99.90;;;;;;5078274;28;20902;-68
2023/02/22 05:39:21;;;;;;;28.07;15.80;;;3.50;99.90;;;;;;5081157;28;20465;-67
2023/02/22 05:41:48;;;;;;;30.20;16.90;;;3.50;99.90;;;;;;5079152;28;20491;-68
2023/02/22 05:44:15;;;;;;;22.90;15.97;;;3.40;99.90;;;;;;5079749;28;20556;-67
2023/02/22 05:46:43;;;;;;;23.83;16.10;;;3.40;99.90;;;;;;5078878;28;20488;-67
2023/02/22 05:49:10;;;;;;;23.77;17.07;;;3.30;99.90;;;;;;5077917;28;20755;-67
2023/02/22 05:51:38;;;;;;;25.37;16.70;;;3.30;99.90;;;;;;5079382;28;20468;-68
2023/02/22 05:54:05;;;;;;;31.90;17.30;;;3.20;99.90;;;;;;5078948;28;20484;-67
2023/02/22 05:56:33;;;;;;;28.20;16.20;;;3.20;99.90;;;;;;5078335;28;20457;-67
2023/02/22 05:59:00;;;;;;;24.33;15.60;;;3.30;99.90;;;;;;5079347;28;20788;-67
2023/02/22 06:01:28;;;;;;;21.57;15.73;;;3.30;99.90;;;;;;5078523;28;20796;-67
2023/02/22 06:03:55;;;;;;;21.50;14.63;;;3.30;99.90;;;;;;5077540;28;20461;-67
2023/02/22 06:06:22;;;;;;;26.73;15.83;;;3.30;99.90;;;;;;5077896;28;20499;-67
2023/02/22 06:08:51;;;;;;;21.37;15.07;;;3.20;99.90;;;;;;5075784;28;20456;-67
2023/02/22 06:11:19;;;;;;;23.33;15.43;;;3.30;99.90;;;;;;5078338;28;20454;-67
2023/02/22 06:13:50;;;;;;;20.97;13.43;;;3.30;99.90;;;;;;5077507;28;20885;-67
2023/02/22 06:16:19;;;;;;;24.87;15.57;;;3.30;99.90;;;;;;5078336;28;20451;-67
2023/02/22 06:18:46;;;;;;;29.27;15.77;;;3.30;99.90;;;;;;5076556;28;20967;-67
2023/02/22 06:21:14;;;;;;;19.93;14.17;;;3.30;99.90;;;;;;5077429;28;20469;-68
2023/02/22 06:23:42;;;;;;;25.10;15.30;;;3.30;99.90;;;;;;5076541;28;20518;-68
2023/02/22 06:26:11;;;;;;;25.33;15.57;;;3.20;99.90;;;;;;5078089;28;20453;-67
2023/02/22 06:28:38;;;;;;;23.00;16.60;;;3.30;99.90;;;;;;5073744;28;20470;-68
2023/02/22 06:31:05;;;;;;;28.00;17.77;;;3.30;99.90;;;;;;5067304;28;20436;-68
2023/02/22 06:33:32;;;;;;;24.90;16.27;;;3.30;99.90;;;;;;5061518;28;20549;-68
2023/02/22 06:36:00;;;;;;;23.33;14.80;;;3.30;99.90;;;;;;5077408;28;20474;-68
2023/02/22 06:38:27;;;;;;;23.87;15.40;;;3.40;99.90;;;;;;5078190;28;20762;-68
2023/02/22 06:40:55;;;;;;;25.10;16.30;;;3.40;99.90;;;;;;5079078;28;20734;-68
2023/02/22 06:43:25;;;;;;;27.93;17.47;;;3.40;99.90;;;;;;5079259;28;20462;-68
2023/02/22 06:45:52;;;;;;;24.80;16.43;;;3.40;99.90;;;;;;5079082;28;20774;-68
2023/02/22 06:48:20;;;;;;;22.17;16.03;;;3.50;99.90;;;;;;5078423;28;20551;-68
2023/02/22 06:50:47;;;;;;;30.50;19.13;;;3.50;99.90;;;;;;5079638;28;20831;-68
2023/02/22 06:53:16;;;;;;;27.80;18.53;;;3.70;99.90;;;;;;5078677;28;20469;-67
2023/02/22 06:55:43;;;;;;;33.50;18.40;;;3.70;99.90;;;;;;5079645;28;20461;-67
2023/02/22 06:58:10;;;;;;;29.70;18.43;;;3.60;99.90;;;;;;5078382;28;20484;-67
2023/02/22 07:00:39;;;;;;;34.50;20.43;;;3.70;99.90;;;;;;5078369;28;20932;-67
2023/02/22 07:03:07;;;;;;;32.27;20.37;;;3.90;99.90;;;;;;5076251;28;20469;-67
2023/02/22 07:05:34;;;;;;;37.37;21.20;;;4.10;99.90;;;;;;5075505;28;20478;-67
2023/02/22 07:08:06;;;;;;;34.03;20.17;;;4.10;99.90;;;;;;5076084;28;20473;-66
2023/02/22 07:10:35;;;;;;;29.00;20.03;;;4.20;99.90;;;;;;5079036;28;20461;-66
2023/02/22 07:13:03;;;;;;;31.33;20.10;;;4.20;99.90;;;;;;5076034;28;20476;-66
2023/02/22 07:15:31;;;;;;;30.33;21.43;;;4.30;99.90;;;;;;5078678;28;20754;-66
2023/02/22 07:18:00;;;;;;;29.07;21.00;;;4.30;99.90;;;;;;5079390;28;20462;-65
2023/02/22 07:20:29;;;;;;;29.17;20.57;;;4.40;99.90;;;;;;5078766;28;20738;-65
2023/02/22 07:22:56;;;;;;;28.97;18.80;;;4.60;99.90;;;;;;5079526;28;20461;-65
2023/02/22 07:25:24;;;;;;;43.13;22.60;;;4.70;99.90;;;;;;5078879;28;20464;-65
2023/02/22 07:27:52;;;;;;;33.23;19.60;;;4.70;99.90;;;;;;5078351;28;20466;-65
2023/02/22 07:30:23;;;;;;;31.90;20.33;;;4.80;99.90;;;;;;5078131;28;20464;-65
2023/02/22 07:32:51;;;;;;;31.37;20.27;;;4.80;99.90;;;;;;5078573;28;20469;-64
2023/02/22 07:35:22;;;;;;;30.90;21.13;;;5.00;99.90;;;;;;5078194;28;20443;-65
2023/02/22 07:37:49;;;;;;;30.10;21.40;;;5.00;99.90;;;;;;5078736;28;20746;-65
2023/02/22 07:40:17;;;;;;;30.93;20.60;;;5.20;99.90;;;;;;5076869;28;20440;-65
2023/02/22 07:42:52;;;;;;;29.37;20.80;;;5.30;99.90;;;;;;5061590;28;20915;-65
2023/02/22 07:45:19;;;;;;;33.23;22.33;;;5.50;99.90;;;;;;5075619;28;20439;-65
2023/02/22 07:47:47;;;;;;;33.73;21.10;;;5.70;99.90;;;;;;5078456;28;20457;-65
2023/02/22 07:50:14;;;;;;;30.90;21.03;;;5.90;99.90;;;;;;5077867;28;21058;-65
2023/02/22 07:52:46;;;;;;;32.30;21.40;;;6.00;99.90;;;;;;5077964;28;20453;-65
2023/02/22 07:55:15;;;;;;;27.43;20.30;;;6.20;99.90;;;;;;5077630;28;20472;-66
2023/02/22 07:57:42;;;;;;;29.03;20.30;;;6.40;99.90;;;;;;5076851;28;20465;-66
2023/02/22 08:00:13;;;;;;;28.40;19.13;;;6.60;99.90;;;;;;5077662;28;20780;-66
2023/02/22 08:02:40;;;;;;;31.07;21.47;;;6.70;99.90;;;;;;5077654;28;20766;-66
2023/02/22 08:05:09;;;;;;;33.07;22.40;;;7.00;99.90;;;;;;5077389;28;20885;-67
2023/02/22 08:07:37;;;;;;;29.93;21.30;;;7.40;99.90;;;;;;5076311;28;20523;-67
2023/02/22 08:10:07;;;;;;;29.30;20.87;;;7.60;99.90;;;;;;5076011;28;20435;-67
2023/02/22 08:12:35;;;;;;;29.70;20.13;;;7.80;99.90;;;;;;5076688;28;20496;-67
2023/02/22 08:15:02;;;;;;;27.60;18.10;;;8.10;99.90;;;;;;5076189;28;20898;-67
2023/02/22 08:17:30;;;;;;;23.80;18.63;;;8.20;99.90;;;;;;5075843;28;20469;-67
2023/02/22 08:19:57;;;;;;;23.00;17.93;;;8.20;99.90;;;;;;5075952;28;20461;-68
2023/02/22 08:22:26;;;;;;;26.00;18.80;;;8.40;99.90;;;;;;5076857;28;20498;-67
2023/02/22 08:24:53;;;;;;;21.17;17.20;;;8.30;99.90;;;;;;5075842;28;20465;-68
2023/02/22 08:27:25;;;;;;;21.70;16.70;;;8.40;99.90;;;;;;5073287;28;20454;-68
2023/02/22 08:29:52;;;;;;;26.83;19.47;;;8.60;99.90;;;;;;5073341;28;20472;-68
2023/02/22 08:32:20;;;;;;;29.63;23.10;;;8.80;99.90;;;;;;5074191;28;20457;-68
2023/02/22 08:34:47;;;;;;;24.03;17.30;;;9.00;99.90;;;;;;5074431;28;20777;-68
2023/02/22 08:37:14;;;;;;;24.10;18.27;;;9.20;99.90;;;;;;5054611;28;20902;-68
2023/02/22 08:39:41;;;;;;;19.23;15.77;;;9.40;99.90;;;;;;5067662;28;20457;-68
2023/02/22 08:42:09;;;;;;;21.77;16.30;;;9.60;99.90;;;;;;5075395;28;20771;-68
2023/02/22 08:44:38;;;;;;;18.63;16.00;;;9.90;99.90;;;;;;5075134;28;20465;-68
2023/02/22 08:47:06;;;;;;;20.53;15.43;;;10.10;99.90;;;;;;5071244;28;20477;-68
2023/02/22 08:49:33;;;;;;;23.30;16.57;;;10.10;99.90;;;;;;5075876;28;20465;-68
2023/02/22 08:52:01;;;;;;;22.33;15.40;;;10.20;99.90;;;;;;5075116;28;20453;-69
2023/02/22 08:54:28;;;;;;;22.43;16.30;;;10.50;99.90;;;;;;5076038;28;20462;-69
2023/02/22 08:56:55;;;;;;;19.30;14.27;;;10.50;99.90;;;;;;5076411;28;20493;-69
2023/02/22 08:59:22;;;;;;;20.40;15.60;;;10.60;99.90;;;;;;5077397;28;20944;-69
2023/02/22 09:01:51;;;;;;;19.77;14.50;;;10.60;99.90;;;;;;5076710;28;20493;-70
2023/02/22 09:04:18;;;;;;;20.03;13.83;;;10.80;99.90;;;;;;5077059;28;20461;-70
2023/02/22 09:06:50;;;;;;;20.90;13.90;;;10.70;1.00;;;;;;5077121;28;20943;-70
2023/02/22 09:09:20;;;;;;;16.83;13.30;;;10.90;1.00;;;;;;5076695;28;20465;-71
2023/02/22 09:11:47;;;;;;;19.73;15.60;;;11.30;1.00;;;;;;5076879;28;20803;-71
2023/02/22 09:14:15;;;;;;;21.30;14.63;;;11.70;99.90;;;;;;5077201;28;20472;-71
2023/02/22 09:16:43;;;;;;;15.90;13.40;;;11.70;99.90;;;;;;5075268;28;20535;-71
2023/02/22 09:19:11;;;;;;;18.03;13.03;;;11.90;1.00;;;;;;5075533;28;20552;-71
2023/02/22 09:21:40;;;;;;;16.50;12.83;;;11.90;99.90;;;;;;5075827;28;20508;-70
2023/02/22 09:24:08;;;;;;;15.20;12.63;;;11.90;23.10;;;;;;5075450;28;20583;-70
2023/02/22 09:26:38;;;;;;;19.03;13.00;;;11.90;1.00;;;;;;5075050;28;20466;-68
2023/02/22 09:29:08;;;;;;;17.20;12.73;;;12.00;1.00;;;;;;5075882;28;20448;-67
2023/02/22 09:31:36;;;;;;;15.03;12.10;;;12.10;1.00;;;;;;5076705;28;20462;-67
2023/02/22 09:34:05;;;;;;;14.00;12.20;;;12.20;1.00;;;;;;5076708;28;20461;-67
2023/02/22 09:36:33;;;;;;;18.10;11.90;;;12.30;1.00;;;;;;5076148;28;20470;-67
2023/02/22 09:39:01;;;;;;;14.50;11.80;;;12.30;1.00;;;;;;5076703;28;20440;-66
2023/02/22 09:41:35;;;;;;;15.33;11.27;;;12.40;1.00;;;;;;5076940;28;20936;-66
2023/02/22 09:44:14;;;;;;;21.23;13.20;;;12.40;1.00;;;;;;5075790;28;20776;-66
2023/02/22 09:46:44;;;;;;;14.13;12.53;;;12.20;1.00;;;;;;5076421;28;20469;-66
2023/02/22 09:49:21;;;;;;;13.07;11.33;;;12.20;1.00;;;;;;5076767;28;20491;-68
2023/02/22 09:51:54;;;;;;;15.87;11.60;;;12.30;1.00;;;;;;5076405;28;20468;-68
2023/02/22 09:54:28;;;;;;;14.73;11.47;;;12.30;1.00;;;;;;5076873;28;20760;-68
2023/02/22 09:56:58;;;;;;;16.67;10.80;;;12.30;1.00;;;;;;5076582;28;20466;-68
2023/02/22 09:59:29;;;;;;;14.17;11.00;;;12.30;1.00;;;;;;5076797;28;20889;-68
2023/02/22 10:02:05;;;;;;;14.93;10.53;;;12.40;1.00;;;;;;5076537;28;20489;-68
2023/02/22 10:04:41;;;;;;;14.67;11.30;;;12.40;1.00;;;;;;5076888;28;20492;-68
2023/02/22 10:07:18;;;;;;;14.03;11.77;;;12.30;1.00;;;;;;5076379;28;20465;-68
2023/02/22 10:09:47;;;;;;;11.80;10.20;;;12.40;1.00;;;;;;5076134;28;20464;-67
2023/02/22 10:12:23;;;;;;;16.23;11.60;;;12.40;1.00;;;;;;5076267;28;20556;-67
2023/02/22 10:15:27;;;;;;;13.60;10.73;;;12.70;1.00;;;;;;5076508;28;20457;-68
2023/02/22 10:18:03;;;;;;;10.90;9.50;;;13.10;1.00;;;;;;5076535;28;20461;-68
2023/02/22 10:20:48;;;;;;;14.67;10.67;;;13.30;1.00;;;;;;5076382;28;20951;-68
2023/02/22 10:23:25;;;;;;;18.13;10.27;;;13.50;1.00;;;;;;5079566;28;20500;-68
2023/02/22 10:25:59;;;;;;;12.97;10.23;;;13.60;1.00;;;;;;5079782;28;20461;-67
2023/02/22 10:28:33;;;;;;;12.43;10.10;;;13.50;1.00;;;;;;5079553;28;20464;-67
2023/02/22 10:31:05;;;;;;;13.33;10.53;;;13.40;1.00;;;;;;5080268;28;20460;-67
2023/02/22 10:33:36;;;;;;;14.23;10.77;;;13.50;1.00;;;;;;5080036;28;20737;-67
2023/02/22 10:36:05;;;;;;;12.37;9.83;;;13.40;1.00;;;;;;5080223;28;20890;-67
2023/02/22 10:38:34;;;;;;;15.40;13.07;;;13.30;1.00;;;;;;5078917;28;20497;-67
2023/02/22 10:41:12;;;;;;;12.63;10.93;;;13.60;1.00;;;;;;5079923;28;20530;-67
2023/02/22 10:43:41;;;;;;;12.50;11.10;;;13.80;1.00;;;;;;5079252;28;20541;-67
2023/02/22 10:46:13;;;;;;;13.10;9.57;;;14.10;1.00;;;;;;5079688;28;20893;-66
2023/02/22 10:48:42;;;;;;;11.43;9.60;;;14.30;1.00;;;;;;5079720;28;20465;-66
2023/02/22 10:51:12;;;;;;;12.20;10.27;;;14.60;1.00;;;;;;5080106;28;20468;-65
2023/02/22 10:53:40;;;;;;;10.73;9.30;;;14.90;1.00;;;;;;5076752;28;20465;-65
2023/02/22 10:56:12;;;;;;;11.30;9.97;;;15.20;1.00;;;;;;5077717;28;20760;-65
2023/02/22 10:58:46;;;;;;;10.73;9.60;;;15.20;1.00;;;;;;5077803;28;20523;-65
2023/02/22 11:01:22;;;;;;;12.70;9.60;;;15.10;1.00;;;;;;5070304;28;20469;-65
2023/02/22 11:04:02;;;;;;;12.33;10.30;;;15.00;1.00;;;;;;5057216;28;20493;-65
2023/02/22 11:06:31;;;;;;;11.50;9.73;;;14.90;1.00;;;;;;5057810;28;20494;-65
2023/02/22 11:09:12;;;;;;;11.53;9.67;;;14.90;1.00;;;;;;5058882;28;20473;-65
2023/02/22 11:11:41;;;;;;;11.77;8.90;;;15.00;1.00;;;;;;5059446;28;20466;-66
2023/02/22 11:14:10;;;;;;;13.17;9.83;;;15.10;1.00;;;;;;5059207;28;20470;-65
2023/02/22 11:16:40;;;;;;;13.70;9.07;;;15.20;1.00;;;;;;5059491;28;20457;-65
2023/02/22 11:19:21;;;;;;;11.13;8.27;;;15.00;1.00;;;;;;5059770;28;20462;-65
2023/02/22 11:21:51;;;;;;;10.13;8.90;;;15.10;1.00;;;;;;5067958;28;20460;-65
2023/02/22 11:24:23;;;;;;;9.30;7.53;;;15.30;1.00;;;;;;5078634;28;20544;-65
2023/02/22 11:26:55;;;;;;;9.33;8.00;;;15.40;1.00;;;;;;5079476;28;20947;-65
2023/02/22 11:29:26;;;;;;;8.30;7.13;;;15.60;1.00;;;;;;5078862;28;20461;-65
2023/02/22 11:31:55;;;;;;;9.20;7.30;;;15.50;1.00;;;;;;5078773;28;20462;-65
2023/02/22 11:34:29;;;;;;;9.13;7.53;;;15.60;1.00;;;;;;5078815;28;20886;-64
2023/02/22 11:37:01;;;;;;;11.03;6.90;;;15.70;1.00;;;;;;5078994;28;20558;-64
2023/02/22 11:39:33;;;;;;;8.63;6.93;;;15.90;1.00;;;;;;5078587;28;20472;-64
2023/02/22 11:42:21;;;;;;;8.97;7.60;;;16.10;1.00;;;;;;5078876;28;20473;-64
2023/02/22 11:44:49;;;;;;;7.10;6.40;;;16.50;1.00;;;;;;5078827;28;20763;-65
2023/02/22 11:47:16;;;;;;;8.83;7.30;;;16.70;1.00;;;;;;5077329;28;20559;-64
2023/02/22 11:49:46;;;;;;;9.93;7.10;;;16.80;1.00;;;;;;5075251;28;20898;-64
2023/02/22 11:52:23;;;;;;;7.90;6.60;;;17.10;1.00;;;;;;5076432;28;20436;-62
2023/02/22 11:55:11;;;;;;;7.53;6.30;;;17.20;1.00;;;;;;5072881;28;20503;-61
2023/02/22 11:57:50;;;;;;;10.17;7.23;;;17.30;1.00;;;;;;5072489;28;20479;-62
2023/02/22 12:00:26;;;;;;;10.20;7.23;;;17.20;1.00;;;;;;5076551;28;20457;-61
2023/02/22 12:03:12;;;;;;;7.57;6.80;;;17.10;1.00;;;;;;5078176;28;20947;-60
2023/02/22 12:05:59;;;;;;;8.63;7.50;;;17.10;1.00;;;;;;5077955;28;20497;-61
2023/02/22 12:08:37;;;;;;;9.43;7.07;;;17.30;1.00;;;;;;5078112;28;20465;-58
2023/02/22 12:11:16;;;;;;;8.63;7.47;;;17.50;1.00;;;;;;5077773;28;20529;-59
2023/02/22 12:13:54;;;;;;;9.10;6.97;;;17.80;1.00;;;;;;5076402;28;20514;-59
2023/02/22 12:16:32;;;;;;;9.60;7.10;;;17.70;1.00;;;;;;5077436;28;20467;-56
2023/02/22 12:19:11;;;;;;;11.30;7.23;;;17.40;1.00;;;;;;5076697;28;20908;-57
2023/02/22 12:21:42;;;;;;;8.97;6.87;;;17.30;1.00;;;;;;5070181;28;20795;-58
2023/02/22 12:24:13;;;;;;;7.40;6.60;;;17.50;1.00;;;;;;5072462;28;20940;-58
2023/02/22 12:26:47;;;;;;;9.37;7.30;;;17.40;1.00;;;;;;5074744;28;20469;-59
2023/02/22 12:29:21;;;;;;;11.00;7.43;;;17.60;1.00;;;;;;5075375;28;20800;-59
2023/02/22 12:31:56;;;;;;;7.53;6.50;;;17.70;1.00;;;;;;5074320;28;20641;-58
2023/02/22 12:34:31;;;;;;;8.53;6.80;;;18.00;1.00;;;;;;5073025;28;20499;-57
2023/02/22 12:37:05;;;;;;;10.97;7.80;;;17.90;1.00;;;;;;5072710;28;20471;-57
2023/02/22 12:39:43;;;;;;;8.47;7.07;;;17.90;1.00;;;;;;5074116;28;20457;-57
2023/02/22 12:42:18;;;;;;;7.27;6.40;;;17.80;1.00;;;;;;5075166;28;20461;-56
2023/02/22 12:44:51;;;;;;;9.47;7.10;;;17.80;1.00;;;;;;5075076;28;20766;-58
2023/02/22 12:47:23;;;;;;;7.70;6.80;;;17.70;1.00;;;;;;5075506;28;20491;-57
2023/02/22 12:49:58;;;;;;;9.60;6.93;;;17.80;1.00;;;;;;5075670;28;20465;-58
2023/02/22 12:52:37;;;;;;;10.00;7.10;;;17.80;1.00;;;;;;5075807;28;20463;-57
2023/02/22 12:55:10;;;;;;;9.73;7.33;;;17.60;99.90;;;;;;5074430;28;20483;-58
2023/02/22 12:57:44;;;;;;;8.07;6.37;;;17.30;99.90;;;;;;5073415;28;20540;-58